createdAt,value
2022-09-13T00:04:45.178Z,98020.94
2022-09-13T00:09:49.837Z,98013.00
2022-09-13T00:14:57.018Z,98011.34
2022-09-13T00:20:01.505Z,98002.94
2022-09-13T00:25:06.631Z,98013.31
2022-09-13T00:30:15.309Z,98003.53
2022-09-13T00:35:20.254Z,98001.16
2022-09-13T00:40:24.740Z,98005.25
2022-09-13T00:45:32.195Z,98003.97
2022-09-13T00:50:40.173Z,98003.53
2022-09-13T00:55:47.024Z,97996.81
2022-09-13T01:00:56.469Z,97987.94
2022-09-13T01:06:04.724Z,97985.63
2022-09-13T01:11:14.257Z,97982.06
2022-09-13T01:16:21.442Z,97975.00
2022-09-13T01:22:10.154Z,97975.44
2022-09-13T01:27:26.580Z,97975.28
2022-09-13T01:32:46.188Z,97969.00
2022-09-13T01:37:57.359Z,97955.13
2022-09-13T01:43:16.671Z,97954.53
2022-09-13T01:48:27.739Z,97954.25
2022-09-13T01:53:41.798Z,97938.00
2022-09-13T01:58:52.637Z,97934.28
2022-09-13T02:04:05.000Z,97936.78
2022-09-13T02:09:16.631Z,97937.19
2022-09-13T02:14:25.781Z,97925.88
2022-09-13T02:19:39.260Z,97926.41
2022-09-13T02:24:47.397Z,97923.47
2022-09-13T02:29:57.651Z,97906.97
2022-09-13T02:35:11.863Z,97913.53
2022-09-13T02:40:23.726Z,97899.72
2022-09-13T02:45:35.118Z,97882.38
2022-09-13T02:50:52.455Z,97877.56
2022-09-13T02:56:06.599Z,97875.22
2022-09-13T03:01:11.180Z,97883.28
2022-09-13T03:06:25.469Z,97890.16
2022-09-13T03:11:44.085Z,97893.25
2022-09-13T03:17:13.544Z,97896.81
2022-09-13T03:22:38.869Z,97888.03
2022-09-13T03:27:54.605Z,97891.56
2022-09-13T03:33:07.417Z,97888.22
2022-09-13T03:38:18.959Z,97902.94
2022-09-13T03:43:27.522Z,97899.44
2022-09-13T03:48:33.100Z,97903.88
2022-09-13T03:53:44.459Z,97896.63
2022-09-13T03:58:59.166Z,97887.66
2022-09-13T04:04:03.701Z,97872.47
2022-09-13T04:09:13.012Z,97875.19
2022-09-13T04:14:18.969Z,97891.22
2022-09-13T04:19:24.901Z,97888.97
2022-09-13T04:24:33.375Z,97885.06
2022-09-13T04:29:37.871Z,97893.38
2022-09-13T04:34:42.463Z,97889.19
2022-09-13T04:39:53.789Z,97888.31
2022-09-13T04:44:58.332Z,97890.56
2022-09-13T04:50:02.828Z,97897.00
2022-09-13T04:55:11.735Z,97895.97
2022-09-13T05:00:16.970Z,97886.66
2022-09-13T05:05:22.155Z,97889.34
2022-09-13T05:10:29.258Z,97892.34
2022-09-13T05:15:33.814Z,97893.44
2022-09-13T05:20:38.273Z,97894.34
2022-09-13T05:25:45.284Z,97891.72
2022-09-13T05:30:57.377Z,97884.50
2022-09-13T05:36:02.108Z,97880.69
2022-09-13T05:41:09.978Z,97876.19
2022-09-13T05:46:16.333Z,97879.78
2022-09-13T05:51:25.379Z,97871.75
2022-09-13T05:56:34.731Z,97870.63
2022-09-13T06:01:39.217Z,97866.53
2022-09-13T06:06:44.142Z,97857.88
2022-09-13T06:11:51.179Z,97862.75
2022-09-13T06:16:55.550Z,97867.66
2022-09-13T06:21:59.938Z,97860.00
2022-09-13T06:27:08.004Z,97852.19
2022-09-13T06:32:12.729Z,97849.09
2022-09-13T06:37:17.204Z,97841.47
2022-09-13T06:42:24.344Z,97852.78
2022-09-13T06:47:29.266Z,97844.25
2022-09-13T06:52:33.687Z,97839.13
2022-09-13T06:57:40.691Z,97834.16
2022-09-13T07:02:45.171Z,97840.44
2022-09-13T07:07:50.186Z,97836.94
2022-09-13T07:12:57.180Z,97837.56
2022-09-13T07:18:01.659Z,97844.06
2022-09-13T07:23:06.454Z,97837.38
2022-09-13T07:28:13.787Z,97842.41
2022-09-13T07:33:18.601Z,97844.91
2022-09-13T07:38:23.265Z,97856.81
2022-09-13T07:43:30.873Z,97861.63
2022-09-13T07:48:37.544Z,97864.75
2022-09-13T07:53:43.990Z,97858.91
2022-09-13T07:58:52.803Z,97856.63
2022-09-13T08:03:59.271Z,97847.25
2022-09-13T08:09:04.354Z,97842.28
2022-09-13T08:14:13.424Z,97850.22
2022-09-13T08:19:19.727Z,97835.41
2022-09-13T08:24:25.100Z,97833.09
2022-09-13T08:29:32.107Z,97835.34
2022-09-13T08:34:36.579Z,97832.34
2022-09-13T08:39:41.408Z,97824.91
2022-09-13T08:44:52.575Z,97827.97
2022-09-13T08:50:04.393Z,97825.81
2022-09-13T08:55:31.849Z,97821.81
2022-09-13T09:00:43.657Z,97820.44
2022-09-13T09:05:51.161Z,97818.91
2022-09-13T09:10:58.192Z,97821.75
2022-09-13T09:16:09.910Z,97827.47
2022-09-13T09:21:19.748Z,97829.53
2022-09-13T09:26:26.640Z,97822.72
2022-09-13T09:31:43.594Z,97817.22
2022-09-13T09:36:56.436Z,97821.28
2022-09-13T09:42:04.473Z,97818.22
2022-09-13T09:47:18.655Z,97818.53
2022-09-13T09:52:28.803Z,97818.38
2022-09-13T09:57:55.752Z,97793.34
2022-09-13T10:03:06.682Z,97790.56
2022-09-13T10:08:27.311Z,97786.47
2022-09-13T10:13:32.751Z,97772.25
2022-09-13T10:18:44.481Z,97772.72
2022-09-13T10:23:51.204Z,97763.66
2022-09-13T10:29:02.213Z,97771.84
2022-09-13T10:34:16.444Z,97764.66
2022-09-13T10:39:23.265Z,97777.41
2022-09-13T10:44:32.833Z,97775.03
2022-09-13T10:49:43.569Z,97754.94
2022-09-13T10:54:48.133Z,97756.13
2022-09-13T11:00:05.074Z,97754.47
2022-09-13T11:05:23.669Z,97755.94
2022-09-13T11:10:35.391Z,97755.69
2022-09-13T11:15:56.126Z,97755.31
2022-09-13T11:21:12.888Z,97756.34
2022-09-13T11:26:37.273Z,97749.84
2022-09-13T11:31:50.605Z,97745.88
2022-09-13T11:37:27.897Z,97735.84
2022-09-13T11:42:46.323Z,97729.22
2022-09-13T11:48:21.013Z,97725.59
2022-09-13T11:53:56.812Z,97722.47
2022-09-13T11:59:15.396Z,97727.94
2022-09-13T12:04:30.494Z,97716.41
2022-09-13T12:09:48.585Z,97716.16
2022-09-13T12:14:58.420Z,97719.00
2022-09-13T12:20:06.326Z,97707.38
2022-09-13T12:25:21.849Z,97705.78
2022-09-13T12:30:31.406Z,97688.34
2022-09-13T12:35:40.722Z,97686.31
2022-09-13T12:41:06.432Z,97680.69
2022-09-13T12:46:29.681Z,97680.00
2022-09-13T12:51:51.340Z,97666.22
2022-09-13T12:57:20.872Z,97659.78
2022-09-13T13:02:31.140Z,97658.25
2022-09-13T13:07:39.225Z,97653.03
2022-09-13T13:12:46.720Z,97651.50
2022-09-13T13:17:53.288Z,97657.34
2022-09-13T13:23:07.126Z,97654.41
2022-09-13T13:28:41.688Z,97653.31
2022-09-13T13:33:55.045Z,97643.69
2022-09-13T13:39:01.334Z,97639.91
2022-09-13T13:44:41.963Z,97633.03
2022-09-13T13:49:53.900Z,97615.50
2022-09-13T13:55:04.716Z,97610.31
2022-09-13T14:00:16.877Z,97614.75
2022-09-13T14:05:31.905Z,97607.34
2022-09-13T14:10:50.903Z,97604.06
2022-09-13T14:16:05.671Z,97595.56
2022-09-13T14:21:25.253Z,97585.09
2022-09-13T14:26:30.088Z,97588.41
2022-09-13T14:31:35.108Z,97583.72
2022-09-13T14:36:54.713Z,97577.13
2022-09-13T14:42:04.068Z,97578.25
2022-09-13T14:47:18.185Z,97587.31
2022-09-13T14:52:32.364Z,97575.16
2022-09-13T14:57:41.986Z,97579.00
2022-09-13T15:02:52.073Z,97563.31
2022-09-13T15:07:59.810Z,97571.91
2022-09-13T15:13:12.887Z,97566.63
2022-09-13T15:18:37.065Z,97566.91
2022-09-13T15:23:51.629Z,97569.94
2022-09-13T15:28:57.935Z,97576.84
2022-09-13T15:34:16.335Z,97588.66
2022-09-13T15:39:24.703Z,97575.97
2022-09-13T15:44:30.759Z,97570.16
2022-09-13T15:49:35.885Z,97585.34
2022-09-13T15:54:45.216Z,97579.59
2022-09-13T15:59:49.989Z,97575.44
2022-09-13T16:04:55.470Z,97569.03
2022-09-13T16:10:03.647Z,97568.44
2022-09-13T16:15:09.345Z,97576.09
2022-09-13T16:20:16.303Z,97574.47
2022-09-13T16:25:23.970Z,97565.00
2022-09-13T16:30:31.477Z,97563.00
2022-09-13T16:35:36.122Z,97563.47
2022-09-13T16:40:45.253Z,97559.00
2022-09-13T16:45:51.566Z,97561.91
2022-09-13T16:50:56.441Z,97558.78
2022-09-13T16:56:10.402Z,97558.97
2022-09-13T17:01:18.054Z,97555.56
2022-09-13T17:06:24.663Z,97560.75
2022-09-13T17:11:34.351Z,97558.19
2022-09-13T17:16:43.472Z,97554.81
2022-09-13T17:21:49.327Z,97561.91
2022-09-13T17:26:57.714Z,97560.50
2022-09-13T17:32:04.003Z,97555.69
2022-09-13T17:37:10.976Z,97561.09
2022-09-13T17:42:22.979Z,97559.94
2022-09-13T17:47:28.685Z,97563.16
2022-09-13T17:52:35.133Z,97559.75
2022-09-13T17:57:42.899Z,97556.41
2022-09-13T18:02:48.101Z,97559.59
2022-09-13T18:07:52.880Z,97558.41
2022-09-13T18:13:00.295Z,97551.19
2022-09-13T18:18:05.264Z,97559.59
2022-09-13T18:23:10.049Z,97554.22
2022-09-13T18:28:17.871Z,97551.34
2022-09-13T18:33:23.783Z,97555.75
2022-09-13T18:38:29.622Z,97553.06
2022-09-13T18:43:38.478Z,97558.38
2022-09-13T18:48:45.230Z,97558.41
2022-09-13T18:53:51.439Z,97559.97
2022-09-13T18:59:02.967Z,97564.41
2022-09-13T19:04:10.708Z,97569.78
2022-09-13T19:09:15.964Z,97571.75
2022-09-13T19:14:25.854Z,97580.22
2022-09-13T19:19:31.049Z,97587.50
2022-09-13T19:24:37.416Z,97583.56
2022-09-13T19:29:44.818Z,97590.84
2022-09-13T19:34:49.892Z,97604.13
2022-09-13T19:39:54.971Z,97600.44
2022-09-13T19:45:02.515Z,97607.22
2022-09-13T19:50:08.446Z,97605.72
2022-09-13T19:55:13.404Z,97596.31
2022-09-13T20:00:21.122Z,97590.00
2022-09-13T20:05:28.129Z,97594.91
2022-09-13T20:10:35.650Z,97603.94
2022-09-13T20:15:50.607Z,97591.81
2022-09-13T20:20:57.814Z,97601.47
2022-09-13T20:26:03.759Z,97595.31
2022-09-13T20:31:11.366Z,97592.97
2022-09-13T20:36:17.569Z,97595.81
2022-09-13T20:41:24.024Z,97592.69
2022-09-13T20:46:32.046Z,97588.81
2022-09-13T20:51:37.400Z,97593.78
2022-09-13T20:56:42.228Z,97590.91
2022-09-13T21:01:50.112Z,97595.91
2022-09-13T21:07:12.259Z,97592.06
2022-09-13T21:12:19.377Z,97593.84
2022-09-13T21:17:27.238Z,97597.50
2022-09-13T21:22:33.149Z,97596.31
2022-09-13T21:27:38.005Z,97595.00
2022-09-13T21:32:45.331Z,97597.38
2022-09-13T21:37:50.333Z,97600.66
2022-09-13T21:42:55.215Z,97590.66
2022-09-13T21:48:02.600Z,97578.22
2022-09-13T21:53:07.237Z,97582.69
2022-09-13T21:58:13.768Z,97593.44
2022-09-13T22:03:22.409Z,97583.56
2022-09-13T22:08:30.278Z,97588.63
2022-09-13T22:13:36.323Z,97588.06
2022-09-13T22:18:43.870Z,97594.16
2022-09-13T22:23:48.759Z,97601.53
2022-09-13T22:28:54.906Z,97597.53
2022-09-13T22:34:03.886Z,97589.25
2022-09-13T22:39:08.695Z,97594.16
2022-09-13T22:44:14.147Z,97586.06
2022-09-13T22:49:22.720Z,97595.75
2022-09-13T22:54:28.650Z,97600.81
2022-09-13T22:59:33.809Z,97602.56
2022-09-13T23:04:41.175Z,97607.28
2022-09-13T23:09:46.243Z,97606.66
2022-09-13T23:14:50.936Z,97600.59
2022-09-13T23:19:58.358Z,97605.00
2022-09-13T23:25:03.472Z,97603.31
2022-09-13T23:30:09.228Z,97598.56
2022-09-13T23:35:17.024Z,97590.03
2022-09-13T23:40:22.914Z,97593.13
2022-09-13T23:45:28.014Z,97580.56
2022-09-13T23:50:35.524Z,97573.84
2022-09-13T23:55:40.548Z,97560.06
